createdAt,value
2022-12-11T00:04:35.523Z,60.47
2022-12-11T00:07:01.905Z,51.78
2022-12-11T00:09:29.567Z,50.17
2022-12-11T00:11:55.959Z,60.45
2022-12-11T00:14:22.327Z,58.60
2022-12-11T00:16:48.811Z,53.00
2022-12-11T00:21:41.721Z,43.72
2022-12-11T00:24:08.128Z,48.67
2022-12-11T00:26:34.461Z,52.95
2022-12-11T00:29:00.852Z,51.33
2022-12-11T00:31:27.265Z,55.47
2022-12-11T00:33:53.625Z,49.10
2022-12-11T00:36:24.225Z,49.15
2022-12-11T00:38:51.116Z,49.78
2022-12-11T00:41:17.924Z,47.40
2022-12-11T00:43:44.379Z,54.47
2022-12-11T00:46:11.693Z,42.83
2022-12-11T00:48:38.448Z,53.40
2022-12-11T00:51:05.090Z,45.20
2022-12-11T00:53:31.511Z,61.97
2022-12-11T00:55:57.846Z,47.92
2022-12-11T00:58:24.551Z,56.63
2022-12-11T01:00:50.933Z,53.70
2022-12-11T01:03:17.460Z,56.60
2022-12-11T01:08:17.811Z,53.47
2022-12-11T01:10:44.242Z,48.75
2022-12-11T01:13:11.193Z,56.97
2022-12-11T01:15:43.779Z,56.67
2022-12-11T01:18:14.661Z,56.45
2022-12-11T01:20:42.130Z,59.20
2022-12-11T01:23:08.470Z,55.53
2022-12-11T01:25:36.318Z,56.40
2022-12-11T01:28:02.797Z,60.33
2022-12-11T01:32:55.555Z,57.65
2022-12-11T01:35:22.094Z,58.92
2022-12-11T01:37:48.738Z,53.95
2022-12-11T01:40:17.670Z,70.97
2022-12-11T01:42:44.415Z,70.20
2022-12-11T01:45:31.973Z,70.85
2022-12-11T01:48:03.722Z,58.53
2022-12-11T01:50:33.399Z,66.50
2022-12-11T01:52:59.920Z,61.20
2022-12-11T01:57:53.864Z,65.05
2022-12-11T02:00:21.506Z,60.38
2022-12-11T02:02:47.939Z,75.75
2022-12-11T02:07:46.267Z,62.40
2022-12-11T02:10:13.171Z,58.50
2022-12-11T02:12:53.866Z,60.70
2022-12-11T02:15:23.209Z,67.50
2022-12-11T02:18:14.303Z,57.80
2022-12-11T02:20:48.214Z,57.03
2022-12-11T02:23:17.554Z,64.57
2022-12-11T02:26:12.138Z,56.97
2022-12-11T02:29:00.628Z,72.50
2022-12-11T02:31:38.683Z,51.30
2022-12-11T02:34:28.673Z,63.05
2022-12-11T02:36:59.062Z,73.45
2022-12-11T02:39:27.751Z,57.05
2022-12-11T02:41:55.925Z,51.45
2022-12-11T02:44:30.251Z,54.22
2022-12-11T02:46:58.191Z,51.28
2022-12-11T02:49:26.038Z,55.72
2022-12-11T02:51:54.364Z,67.43
2022-12-11T02:54:27.373Z,55.55
2022-12-11T02:57:01.642Z,61.05
2022-12-11T02:59:35.836Z,60.03
2022-12-11T03:02:03.673Z,58.75
2022-12-11T03:04:30.302Z,53.53
2022-12-11T03:06:59.729Z,52.42
2022-12-11T03:09:27.867Z,55.20
2022-12-11T03:11:54.415Z,52.25
2022-12-11T03:14:20.966Z,53.85
2022-12-11T03:17:07.575Z,53.15
2022-12-11T03:19:47.552Z,50.53
2022-12-11T03:22:25.099Z,51.03
2022-12-11T03:25:00.622Z,52.15
2022-12-11T03:27:55.544Z,53.10
2022-12-11T03:30:23.665Z,60.03
2022-12-11T03:32:54.620Z,54.55
2022-12-11T03:35:26.349Z,59.40
2022-12-11T03:37:54.293Z,63.22
2022-12-11T03:40:23.202Z,54.35
2022-12-11T03:42:52.527Z,56.92
2022-12-11T03:45:20.993Z,57.08
2022-12-11T03:47:48.101Z,67.50
2022-12-11T03:50:17.277Z,54.78
2022-12-11T03:52:47.336Z,60.75
2022-12-11T03:55:16.414Z,65.45
2022-12-11T03:57:43.291Z,59.38
2022-12-11T04:00:13.487Z,55.55
2022-12-11T04:02:41.048Z,56.03
2022-12-11T04:05:08.561Z,56.70
2022-12-11T04:07:35.477Z,60.08
2022-12-11T04:10:02.287Z,51.15
2022-12-11T04:12:28.620Z,55.70
2022-12-11T04:14:54.951Z,57.42
2022-12-11T04:17:21.331Z,61.47
2022-12-11T04:19:47.639Z,70.03
2022-12-11T04:22:15.677Z,49.78
2022-12-11T04:24:42.000Z,53.60
2022-12-11T04:27:08.345Z,53.67
2022-12-11T04:29:34.806Z,57.65
2022-12-11T04:34:27.441Z,56.78
2022-12-11T04:36:53.735Z,51.22
2022-12-11T04:39:20.114Z,47.08
2022-12-11T04:41:46.447Z,48.58
2022-12-11T04:44:12.744Z,53.92
2022-12-11T04:46:39.166Z,54.95
2022-12-11T04:51:31.845Z,51.83
2022-12-11T04:53:58.864Z,46.95
2022-12-11T04:56:25.177Z,54.35
2022-12-11T04:58:51.519Z,60.67
2022-12-11T05:01:21.301Z,60.40
2022-12-11T05:03:48.132Z,52.72
2022-12-11T05:06:14.714Z,60.35
2022-12-11T05:08:42.941Z,53.13
2022-12-11T05:11:11.614Z,61.58
2022-12-11T05:13:38.659Z,60.33
2022-12-11T05:16:05.900Z,49.35
2022-12-11T05:18:32.384Z,56.42
2022-12-11T05:23:27.397Z,55.33
2022-12-11T05:25:59.311Z,49.53
2022-12-11T05:28:29.251Z,53.83
2022-12-11T05:31:01.226Z,51.17
2022-12-11T05:33:28.550Z,55.38
2022-12-11T05:35:55.550Z,57.28
2022-12-11T05:38:22.414Z,52.42
2022-12-11T05:41:05.806Z,57.17
2022-12-11T05:43:34.173Z,56.72
2022-12-11T05:46:13.973Z,57.67
2022-12-11T05:48:40.932Z,44.67
2022-12-11T05:51:08.408Z,50.70
2022-12-11T05:53:36.443Z,49.70
2022-12-11T05:56:08.946Z,55.67
2022-12-11T06:01:02.416Z,46.30
2022-12-11T06:03:28.855Z,49.00
2022-12-11T06:08:21.572Z,53.05
2022-12-11T06:13:15.895Z,44.03
2022-12-11T06:15:42.569Z,47.63
2022-12-11T06:18:08.984Z,56.75
2022-12-11T06:23:02.398Z,51.10
2022-12-11T06:25:29.750Z,50.58
2022-12-11T06:27:56.323Z,59.83
2022-12-11T06:30:23.233Z,55.85
2022-12-11T06:33:04.939Z,52.35
2022-12-11T06:37:57.790Z,45.85
2022-12-11T06:40:24.159Z,46.65
2022-12-11T06:42:50.457Z,56.67
2022-12-11T06:45:16.871Z,55.00
2022-12-11T06:50:09.849Z,48.30
2022-12-11T06:52:36.210Z,50.83
2022-12-11T06:55:02.629Z,52.17
2022-12-11T06:59:55.284Z,52.55
2022-12-11T07:02:21.684Z,52.30
2022-12-11T07:07:21.383Z,47.17
2022-12-11T07:12:14.193Z,48.05
2022-12-11T07:14:40.627Z,44.80
2022-12-11T07:19:33.493Z,53.72
2022-12-11T07:24:26.312Z,50.13
2022-12-11T07:26:52.811Z,57.63
2022-12-11T07:29:19.335Z,53.47
2022-12-11T07:31:45.920Z,59.83
2022-12-11T07:34:13.710Z,58.25
2022-12-11T07:36:40.136Z,51.30
2022-12-11T07:41:33.105Z,46.33
2022-12-11T07:44:00.782Z,51.50
2022-12-11T07:46:29.606Z,49.72
2022-12-11T07:48:56.168Z,50.05
2022-12-11T07:51:25.073Z,48.70
2022-12-11T07:53:52.350Z,52.60
2022-12-11T07:56:19.337Z,50.20
2022-12-11T07:58:46.786Z,46.28
2022-12-11T08:01:19.198Z,50.63
2022-12-11T08:06:12.778Z,49.28
2022-12-11T08:08:40.098Z,50.67
2022-12-11T08:11:09.628Z,45.97
2022-12-11T08:13:36.326Z,44.47
2022-12-11T08:16:07.657Z,45.88
2022-12-11T08:18:35.086Z,47.58
2022-12-11T08:21:28.038Z,45.33
2022-12-11T08:23:55.024Z,51.88
2022-12-11T08:26:24.346Z,45.67
2022-12-11T08:28:51.424Z,47.92
2022-12-11T08:31:18.890Z,46.85
2022-12-11T08:33:45.768Z,45.83
2022-12-11T08:36:14.537Z,43.47
2022-12-11T08:38:41.582Z,42.47
2022-12-11T08:41:22.634Z,50.80
2022-12-11T08:43:49.714Z,41.47
2022-12-11T08:46:16.121Z,49.75
2022-12-11T08:51:13.500Z,41.05
2022-12-11T08:53:39.916Z,41.63
2022-12-11T08:58:40.047Z,38.95
2022-12-11T09:01:12.288Z,36.88
2022-12-11T09:03:40.019Z,37.45
2022-12-11T09:06:12.173Z,40.80
2022-12-11T09:08:39.182Z,39.45
2022-12-11T09:11:07.612Z,48.10
2022-12-11T09:13:34.025Z,43.70
2022-12-11T09:18:26.866Z,41.42
2022-12-11T09:23:29.210Z,39.28
2022-12-11T09:25:55.681Z,35.92
2022-12-11T09:28:22.479Z,37.35
2022-12-11T09:30:48.920Z,37.75
2022-12-11T09:33:15.431Z,35.67
2022-12-11T09:38:08.094Z,39.38
2022-12-11T09:43:09.149Z,33.00
2022-12-11T09:45:35.505Z,31.73
2022-12-11T09:48:02.360Z,33.58
2022-12-11T09:50:32.823Z,30.90
2022-12-11T09:53:32.422Z,30.23
2022-12-11T09:56:11.276Z,30.58
2022-12-11T09:59:05.415Z,29.63
2022-12-11T10:01:43.887Z,30.02
2022-12-11T10:06:43.481Z,25.13
2022-12-11T10:09:22.458Z,24.52
2022-12-11T10:11:58.313Z,26.83
2022-12-11T10:14:46.519Z,25.52
2022-12-11T10:17:21.416Z,27.95
2022-12-11T10:19:48.632Z,19.35
2022-12-11T10:22:24.550Z,21.98
2022-12-11T10:25:13.472Z,32.20
2022-12-11T10:27:40.883Z,23.23
2022-12-11T10:30:15.212Z,25.10
2022-12-11T10:33:12.000Z,23.85
2022-12-11T10:36:10.499Z,23.63
2022-12-11T10:38:45.365Z,24.70
2022-12-11T10:41:16.455Z,22.10
2022-12-11T10:43:45.996Z,24.38
2022-12-11T10:46:25.457Z,24.73
2022-12-11T10:48:56.854Z,25.73
2022-12-11T10:51:43.895Z,25.02
2022-12-11T10:54:39.522Z,25.38
2022-12-11T10:57:08.850Z,25.15
2022-12-11T10:59:44.242Z,23.58
2022-12-11T11:02:25.517Z,22.83
2022-12-11T11:04:53.406Z,22.90
2022-12-11T11:07:25.503Z,25.52
2022-12-11T11:10:05.231Z,26.20
2022-12-11T11:12:47.461Z,22.20
2022-12-11T11:15:19.231Z,27.50
2022-12-11T11:17:54.544Z,25.08
2022-12-11T11:20:27.173Z,23.67
2022-12-11T11:22:56.934Z,27.67
2022-12-11T11:25:26.430Z,22.83
2022-12-11T11:27:56.405Z,20.88
2022-12-11T11:30:24.803Z,25.80
2022-12-11T11:32:54.637Z,21.15
2022-12-11T11:35:24.366Z,22.25
2022-12-11T11:38:02.614Z,22.23
2022-12-11T11:40:37.859Z,23.95
2022-12-11T11:43:18.890Z,22.30
2022-12-11T11:45:56.520Z,24.02
2022-12-11T11:48:33.613Z,25.77
2022-12-11T11:51:07.850Z,27.25
2022-12-11T11:53:38.592Z,22.55
2022-12-11T11:56:29.194Z,25.25
2022-12-11T11:59:03.456Z,23.92
2022-12-11T12:01:30.360Z,20.00
2022-12-11T12:03:57.495Z,20.55
2022-12-11T12:06:47.464Z,22.40
2022-12-11T12:09:33.971Z,22.05
2022-12-11T12:12:24.733Z,23.65
2022-12-11T12:15:15.505Z,22.75
2022-12-11T12:17:56.314Z,20.52
2022-12-11T12:20:34.424Z,21.23
2022-12-11T12:23:11.388Z,22.55
2022-12-11T12:25:43.920Z,22.77
2022-12-11T12:28:48.266Z,21.35
2022-12-11T12:31:39.628Z,22.17
2022-12-11T12:34:15.015Z,21.80
2022-12-11T12:37:27.354Z,22.70
2022-12-11T12:40:14.038Z,22.05
2022-12-11T12:42:59.437Z,21.92
2022-12-11T12:45:46.455Z,27.70
2022-12-11T12:48:12.867Z,21.55
2022-12-11T12:53:17.646Z,24.13
2022-12-11T12:55:45.658Z,25.88
2022-12-11T12:58:31.152Z,25.70
2022-12-11T13:01:15.151Z,25.02
2022-12-11T13:03:50.864Z,23.90
2022-12-11T13:06:39.137Z,26.20
2022-12-11T13:09:25.012Z,27.65
2022-12-11T13:11:54.301Z,25.27
2022-12-11T13:14:20.540Z,22.77
2022-12-11T13:16:49.458Z,24.83
2022-12-11T13:19:24.632Z,24.92
2022-12-11T13:22:06.312Z,25.17
2022-12-11T13:24:34.182Z,26.08
2022-12-11T13:27:25.783Z,29.98
2022-12-11T13:29:52.675Z,26.27
2022-12-11T13:32:19.001Z,24.52
2022-12-11T13:34:56.376Z,25.73
2022-12-11T13:37:36.593Z,23.20
2022-12-11T13:40:08.820Z,27.85
2022-12-11T13:42:44.093Z,22.17
2022-12-11T13:45:22.831Z,26.23
2022-12-11T13:47:49.606Z,32.08
2022-12-11T13:50:25.059Z,29.42
2022-12-11T13:52:56.105Z,28.77
2022-12-11T13:55:30.932Z,28.33
2022-12-11T13:57:57.925Z,29.05
2022-12-11T14:00:27.045Z,27.52
2022-12-11T14:02:58.236Z,29.63
2022-12-11T14:05:24.985Z,25.10
2022-12-11T14:07:57.958Z,27.77
2022-12-11T14:10:26.812Z,29.05
2022-12-11T14:12:59.496Z,29.20
2022-12-11T14:15:28.067Z,30.75
2022-12-11T14:17:55.734Z,28.83
2022-12-11T14:20:28.257Z,27.40
2022-12-11T14:23:06.054Z,25.70
2022-12-11T14:25:32.402Z,29.20
2022-12-11T14:27:58.733Z,30.10
2022-12-11T14:30:28.016Z,29.25
2022-12-11T14:32:58.290Z,27.95
2022-12-11T14:35:38.393Z,27.10
2022-12-11T14:38:17.983Z,27.42
2022-12-11T14:40:48.824Z,27.70
2022-12-11T14:43:23.015Z,26.63
2022-12-11T14:45:53.905Z,31.23
2022-12-11T14:48:26.199Z,27.95
2022-12-11T14:50:55.046Z,27.45
2022-12-11T14:53:28.619Z,28.17
2022-12-11T14:55:57.735Z,25.90
2022-12-11T14:58:26.322Z,27.63
2022-12-11T15:01:03.384Z,26.33
2022-12-11T15:03:35.688Z,25.45
2022-12-11T15:06:21.173Z,30.60
2022-12-11T15:08:47.488Z,28.80
2022-12-11T15:11:16.632Z,25.05
2022-12-11T15:13:54.520Z,26.58
2022-12-11T15:16:22.989Z,26.92
2022-12-11T15:18:51.326Z,28.63
2022-12-11T15:21:19.214Z,30.60
2022-12-11T15:23:45.483Z,28.70
2022-12-11T15:26:12.021Z,28.58
2022-12-11T15:28:39.359Z,31.33
2022-12-11T15:31:27.577Z,32.17
2022-12-11T15:33:54.481Z,25.83
2022-12-11T15:36:33.338Z,26.13
2022-12-11T15:38:59.693Z,27.63
2022-12-11T15:41:26.282Z,26.30
2022-12-11T15:43:59.249Z,28.73
2022-12-11T15:46:26.220Z,25.10
2022-12-11T15:48:52.708Z,29.40
2022-12-11T15:51:19.104Z,27.58
2022-12-11T15:53:45.535Z,26.52
2022-12-11T15:58:44.162Z,27.58
2022-12-11T16:01:11.039Z,26.77
2022-12-11T16:03:37.387Z,26.52
2022-12-11T16:06:03.997Z,27.25
2022-12-11T16:08:30.416Z,28.23
2022-12-11T16:13:23.198Z,30.65
2022-12-11T16:15:51.121Z,28.73
2022-12-11T16:18:20.935Z,30.27
2022-12-11T16:20:47.652Z,26.30
2022-12-11T16:23:14.767Z,27.08
2022-12-11T16:25:42.722Z,31.15
2022-12-11T16:28:11.843Z,29.88
2022-12-11T16:30:38.854Z,26.10
2022-12-11T16:33:12.003Z,27.73
2022-12-11T16:35:39.197Z,30.30
2022-12-11T16:38:05.635Z,30.75
2022-12-11T16:42:58.630Z,27.50
2022-12-11T16:45:26.863Z,28.20
2022-12-11T16:47:53.466Z,26.20
2022-12-11T16:50:20.388Z,26.50
2022-12-11T16:52:46.775Z,30.55
2022-12-11T16:55:13.916Z,28.02
2022-12-11T16:57:40.550Z,31.52
2022-12-11T17:00:09.776Z,29.75
2022-12-11T17:02:36.643Z,33.92
2022-12-11T17:05:03.609Z,27.02
2022-12-11T17:07:31.783Z,34.47
2022-12-11T17:09:58.229Z,28.20
2022-12-11T17:14:50.969Z,22.20
2022-12-11T17:17:17.314Z,30.20
2022-12-11T17:19:43.699Z,32.25
2022-12-11T17:22:10.046Z,32.35
2022-12-11T17:24:36.463Z,29.60
2022-12-11T17:29:29.157Z,30.65
2022-12-11T17:31:55.606Z,26.85
2022-12-11T17:36:48.302Z,26.80
2022-12-11T17:39:14.729Z,33.22
2022-12-11T17:44:07.512Z,31.05
2022-12-11T17:49:03.568Z,29.33
2022-12-11T17:51:29.924Z,30.45
2022-12-11T17:53:57.139Z,30.63
2022-12-11T17:56:24.631Z,30.70
2022-12-11T17:58:51.395Z,28.52
2022-12-11T18:01:18.180Z,28.63
2022-12-11T18:03:44.677Z,30.83
2022-12-11T18:08:39.467Z,28.08
2022-12-11T18:11:14.944Z,29.15
2022-12-11T18:13:42.561Z,28.75
2022-12-11T18:16:14.371Z,28.42
2022-12-11T18:18:40.802Z,29.55
2022-12-11T18:21:07.443Z,28.90
2022-12-11T18:23:34.269Z,27.10
2022-12-11T18:26:01.530Z,29.85
2022-12-11T18:28:27.886Z,26.65
2022-12-11T18:30:54.318Z,27.00
2022-12-11T18:35:49.734Z,26.83
2022-12-11T18:38:16.102Z,28.48
2022-12-11T18:40:42.707Z,28.73
2022-12-11T18:43:09.073Z,28.85
2022-12-11T18:45:35.494Z,27.02
2022-12-11T18:48:01.852Z,32.47
2022-12-11T18:50:28.206Z,30.25
2022-12-11T18:52:55.194Z,34.28
2022-12-11T18:55:21.603Z,30.23
2022-12-11T18:57:48.038Z,31.50
2022-12-11T19:02:43.344Z,31.73
2022-12-11T19:05:11.328Z,29.55
2022-12-11T19:07:38.057Z,27.70
2022-12-11T19:10:05.064Z,32.35
2022-12-11T19:12:31.466Z,31.33
2022-12-11T19:14:57.846Z,29.67
2022-12-11T19:17:24.198Z,29.77
2022-12-11T19:19:50.566Z,30.48
2022-12-11T19:22:16.919Z,32.45
2022-12-11T19:24:43.253Z,29.65
2022-12-11T19:27:13.524Z,28.33
2022-12-11T19:29:40.329Z,27.52
2022-12-11T19:34:32.929Z,31.17
2022-12-11T19:36:59.295Z,30.92
2022-12-11T19:39:25.822Z,34.95
2022-12-11T19:44:18.458Z,29.85
2022-12-11T19:46:45.009Z,27.77
2022-12-11T19:49:12.290Z,31.80
2022-12-11T19:51:40.038Z,28.60
2022-12-11T19:54:07.990Z,29.63
2022-12-11T19:56:34.845Z,32.33
2022-12-11T19:59:07.022Z,31.35
2022-12-11T20:01:36.421Z,29.63
2022-12-11T20:04:09.029Z,27.98
2022-12-11T20:06:37.164Z,33.60
2022-12-11T20:09:05.355Z,31.25
2022-12-11T20:11:33.103Z,33.50
2022-12-11T20:13:59.867Z,28.63
2022-12-11T20:16:46.175Z,27.38
2022-12-11T20:19:12.893Z,29.42
2022-12-11T20:24:05.778Z,30.17
2022-12-11T20:26:32.165Z,27.27
2022-12-11T20:31:25.873Z,29.65
2022-12-11T20:33:53.254Z,31.23
2022-12-11T20:36:21.329Z,27.95
2022-12-11T20:38:47.925Z,35.28
2022-12-11T20:41:18.121Z,30.73
2022-12-11T20:43:46.995Z,29.98
2022-12-11T20:46:15.068Z,28.63
2022-12-11T20:48:43.093Z,30.70
2022-12-11T20:51:11.467Z,28.17
2022-12-11T20:53:38.519Z,32.17
2022-12-11T20:56:13.989Z,33.47
2022-12-11T20:58:41.147Z,27.17
2022-12-11T21:01:07.689Z,33.75
2022-12-11T21:03:38.892Z,32.20
2022-12-11T21:06:20.210Z,30.95
2022-12-11T21:08:49.580Z,31.92
2022-12-11T21:11:16.297Z,29.90
2022-12-11T21:13:45.659Z,31.35
2022-12-11T21:16:12.319Z,30.70
2022-12-11T21:18:39.423Z,32.25
2022-12-11T21:21:06.153Z,30.73
2022-12-11T21:23:32.805Z,34.00
2022-12-11T21:25:59.591Z,29.73
2022-12-11T21:28:29.332Z,29.73
2022-12-11T21:31:04.188Z,28.08
2022-12-11T21:33:31.019Z,29.58
2022-12-11T21:35:58.921Z,29.00
2022-12-11T21:38:25.611Z,30.48
2022-12-11T21:40:52.435Z,31.08
2022-12-11T21:43:19.188Z,28.63
2022-12-11T21:46:05.019Z,32.40
2022-12-11T21:48:31.652Z,31.63
2022-12-11T21:51:06.105Z,31.75
2022-12-11T21:53:32.608Z,26.40
2022-12-11T21:58:25.359Z,28.92
2022-12-11T22:00:51.712Z,31.30
2022-12-11T22:05:44.453Z,33.67
2022-12-11T22:08:10.880Z,27.20
2022-12-11T22:13:03.760Z,29.42
2022-12-11T22:15:30.162Z,29.55
2022-12-11T22:17:56.541Z,31.85
2022-12-11T22:20:23.113Z,29.63
2022-12-11T22:22:49.453Z,28.58
2022-12-11T22:25:25.795Z,28.80
2022-12-11T22:27:52.143Z,30.45
2022-12-11T22:30:18.657Z,32.55
2022-12-11T22:35:11.530Z,30.98
2022-12-11T22:37:38.165Z,32.70
2022-12-11T22:40:05.357Z,30.23
2022-12-11T22:42:31.733Z,31.00
2022-12-11T22:44:58.041Z,28.10
2022-12-11T22:47:24.378Z,30.38
2022-12-11T22:49:50.760Z,35.33
2022-12-11T22:52:17.192Z,29.20
2022-12-11T22:57:09.765Z,32.55
2022-12-11T22:59:36.663Z,32.13
2022-12-11T23:02:03.325Z,29.50
2022-12-11T23:04:29.793Z,29.10
2022-12-11T23:06:56.185Z,29.88
2022-12-11T23:09:22.745Z,32.67
2022-12-11T23:11:49.149Z,33.20
2022-12-11T23:14:17.654Z,28.05
2022-12-11T23:16:44.761Z,31.65
2022-12-11T23:19:12.183Z,29.23
2022-12-11T23:21:38.996Z,31.38
2022-12-11T23:24:05.898Z,31.63
2022-12-11T23:26:32.550Z,32.28
2022-12-11T23:28:59.782Z,29.92
2022-12-11T23:31:27.392Z,27.20
2022-12-11T23:33:54.114Z,26.00
2022-12-11T23:36:20.947Z,25.05
2022-12-11T23:38:54.104Z,22.23
2022-12-11T23:41:21.456Z,28.42
2022-12-11T23:43:47.852Z,30.10
2022-12-11T23:48:42.665Z,25.98
2022-12-11T23:51:12.756Z,27.45
2022-12-11T23:53:39.190Z,32.05
2022-12-11T23:58:36.878Z,28.50
